Hertfordshire — ZDJS5 — position and weather

sailwx.info

Track history (hours):
 
Tides and Currents Weather Stations Pressure Air Temp Water Temp Dewpoint Dewpoint Depression Visibility Wind Speed Wind Dir Waves Ship Positions

Hertfordshire

Last reported at 2016-Feb-09 02:33 UTC. Time now 2016-Feb-09 03:27 UTC.
Position N 53°33' E 000°08'.

Length 83 m; draft 4.7 m.

Type: Cargo ship. MMSI: 236563000.

Date/timePositionNaut miles runAvg speedWind from/ knotsBaromVisibWave heightAir tempDewpointWater temp
2016-Feb-09 02:33N 53°33' E 000°08'8 7.9
2016-Feb-09 01:33N 53°30' E 000°21'2010.1
2016-Feb-08 23:32N 53°15' E 000°43'9 9.6
2016-Feb-08 22:33N 53°09' E 000°55'8 8.3
2016-Feb-08 21:33N 53°03' E 001°05'7 7.3
2016-Feb-08 20:33N 52°60' E 001°16'7 7.0
2016-Feb-08 19:34N 52°56' E 001°25'7 7.1
2016-Feb-08 18:34N 52°51' E 001°34'7 6.7
2016-Feb-08 17:33N 52°48' E 001°44'8 7.9
2016-Feb-08 16:33N 52°44' E 001°55'1111.4
2016-Feb-08 15:34N 52°32' E 001°53'1212.2
2016-Feb-08 14:33N 52°20' E 001°52'1211.8
2016-Feb-08 13:33N 52°09' E 001°50'1211.5
2016-Feb-08 12:33N 51°57' E 001°48'1010.1
2016-Feb-08 11:33N 51°47' E 001°48'10 9.7
2016-Feb-08 10:33N 51°37' E 001°49'10 9.9
2016-Feb-08 09:33N 51°27' E 001°47'1010.1
2016-Feb-08 08:33N 51°18' E 001°41'9 8.7
2016-Feb-08 07:33N 51°09' E 001°39'7 7.0
2016-Feb-08 06:34N 51°03' E 001°35'7 7.4
2016-Feb-08 05:34N 50°57' E 001°28'  
2016-Feb-04 21:30N 41°56' W 009°46'9 9.3
2016-Feb-04 20:33N 41°47' W 009°47'9 9.4
2016-Feb-04 19:33N 41°38' W 009°48'10 9.8
2016-Feb-04 18:33N 41°28' W 009°48'1010.3
2016-Feb-04 17:33N 41°18' W 009°49'10 9.9
2016-Feb-04 16:33N 41°08' W 009°49'10 9.8
2016-Feb-04 15:33N 40°58' W 009°49'10 9.6
2016-Feb-04 14:33N 40°49' W 009°49'10 9.6
2016-Feb-04 13:33N 40°39' W 009°50'13 9.2
2016-Feb-04 12:06N 40°26' W 009°50'6 9.5
2016-Feb-04 11:30N 40°20' W 009°50'9 9.2
2016-Feb-04 10:33N 40°11' W 009°50'9 9.3
2016-Feb-04 09:33N 40°02' W 009°50'9 9.2
2016-Feb-04 08:33N 39°53' W 009°49'9 8.9
2016-Feb-04 07:33N 39°44' W 009°50'8 8.3
2016-Feb-04 06:33N 39°35' W 009°50'8 8.3
2016-Feb-04 05:33N 39°27' W 009°50'8 7.3
2016-Feb-04 04:31N 39°20' W 009°50'8 7.9
2016-Feb-04 03:33N 39°12' W 009°51'8 8.4
2016-Feb-04 02:33N 39°04' W 009°51'7 6.8
2016-Feb-04 01:33N 38°57' W 009°51'8 7.7
2016-Feb-04 00:33N 38°49' W 009°51'8 7.5
2016-Feb-03 23:33N 38°42' W 009°51'7 7.3
2016-Feb-03 22:32N 38°34' W 009°49'7 7.4
2016-Feb-03 21:33N 38°27' W 009°46'8 7.4
2016-Feb-03 20:32N 38°20' W 009°44'8 8.0
2016-Feb-03 19:33N 38°12' W 009°42'7 7.2
2016-Feb-03 18:33N 38°06' W 009°40'8 7.4
2016-Feb-03 17:33N 37°58' W 009°37'8 7.6
2016-Feb-03 16:33N 37°51' W 009°35'8 8.1
2016-Feb-03 15:33N 37°43' W 009°33'8 7.7
2016-Feb-03 14:33N 37°35' W 009°31'8 7.3
2016-Feb-03 13:30N 37°28' W 009°29'8 7.9
2016-Feb-03 12:30N 37°20' W 009°27'7 7.3
2016-Feb-03 11:33N 37°14' W 009°25'7 7.4
2016-Feb-03 10:33N 37°06' W 009°23'8 7.6
2016-Feb-03 09:33N 36°59' W 009°20'8 7.3
2016-Feb-03 08:27N 36°52' W 009°16'7 7.8
2016-Feb-03 07:33N 36°46' W 009°10'8 8.2
2016-Feb-03 06:33N 36°44' W 009°01'9 8.9
2016-Feb-03 05:33N 36°40' W 008°50'10 9.8
2016-Feb-03 04:33N 36°37' W 008°39'10 9.4
2016-Feb-03 03:30N 36°34' W 008°27'10 9.9
2016-Feb-03 02:30N 36°31' W 008°16'44 9.9
2016-Feb-02 22:06N 36°17' W 007°24'1010.1
2016-Feb-02 21:06N 36°14' W 007°13'610.4
2016-Feb-02 20:33N 36°12' W 007°06'77 9.6
2016-Feb-02 12:33N 35°59' W 005°32'8 8.5
2016-Feb-02 11:33N 36°01' W 005°22'  
2016-Jan-30 21:33N 36°06' W 005°13'9 9.3
2016-Jan-30 20:33N 36°02' W 005°24'1010.0
2016-Jan-30 19:32N 35°56' W 005°34'  
Track history (hours):
 
Tides and Currents Weather Stations Pressure Air Temp Water Temp Dewpoint Dewpoint Depression Visibility Wind Speed Wind Dir Waves Ship Positions

Hertfordshire

Last reported at 2016-Feb-09 02:33 UTC. Time now 2016-Feb-09 03:27 UTC.
Position N 53°33' E 000°08'.

Length 83 m; draft 4.7 m.

Type: Cargo ship. MMSI: 236563000.

Date/timePositionNaut miles runAvg speedWind from/ knotsBaromVisibWave heightAir tempDewpointWater temp
2016-Feb-09 02:33N 53°33' E 000°08'8 7.9
2016-Feb-09 01:33N 53°30' E 000°21'2010.1
2016-Feb-08 23:32N 53°15' E 000°43'9 9.6
2016-Feb-08 22:33N 53°09' E 000°55'8 8.3
2016-Feb-08 21:33N 53°03' E 001°05'7 7.3
2016-Feb-08 20:33N 52°60' E 001°16'7 7.0
2016-Feb-08 19:34N 52°56' E 001°25'7 7.1
2016-Feb-08 18:34N 52°51' E 001°34'7 6.7
2016-Feb-08 17:33N 52°48' E 001°44'8 7.9
2016-Feb-08 16:33N 52°44' E 001°55'1111.4
2016-Feb-08 15:34N 52°32' E 001°53'1212.2
2016-Feb-08 14:33N 52°20' E 001°52'1211.8
2016-Feb-08 13:33N 52°09' E 001°50'1211.5
2016-Feb-08 12:33N 51°57' E 001°48'1010.1
2016-Feb-08 11:33N 51°47' E 001°48'10 9.7
2016-Feb-08 10:33N 51°37' E 001°49'10 9.9
2016-Feb-08 09:33N 51°27' E 001°47'1010.1
2016-Feb-08 08:33N 51°18' E 001°41'9 8.7
2016-Feb-08 07:33N 51°09' E 001°39'7 7.0
2016-Feb-08 06:34N 51°03' E 001°35'7 7.4
2016-Feb-08 05:34N 50°57' E 001°28'  
2016-Feb-04 21:30N 41°56' W 009°46'9 9.3
2016-Feb-04 20:33N 41°47' W 009°47'9 9.4
2016-Feb-04 19:33N 41°38' W 009°48'10 9.8
2016-Feb-04 18:33N 41°28' W 009°48'1010.3
2016-Feb-04 17:33N 41°18' W 009°49'10 9.9
2016-Feb-04 16:33N 41°08' W 009°49'10 9.8
2016-Feb-04 15:33N 40°58' W 009°49'10 9.6
2016-Feb-04 14:33N 40°49' W 009°49'10 9.6
2016-Feb-04 13:33N 40°39' W 009°50'13 9.2
2016-Feb-04 12:06N 40°26' W 009°50'6 9.5
2016-Feb-04 11:30N 40°20' W 009°50'9 9.2
2016-Feb-04 10:33N 40°11' W 009°50'9 9.3
2016-Feb-04 09:33N 40°02' W 009°50'9 9.2
2016-Feb-04 08:33N 39°53' W 009°49'9 8.9
2016-Feb-04 07:33N 39°44' W 009°50'8 8.3
2016-Feb-04 06:33N 39°35' W 009°50'8 8.3
2016-Feb-04 05:33N 39°27' W 009°50'8 7.3
2016-Feb-04 04:31N 39°20' W 009°50'8 7.9
2016-Feb-04 03:33N 39°12' W 009°51'8 8.4
2016-Feb-04 02:33N 39°04' W 009°51'7 6.8
2016-Feb-04 01:33N 38°57' W 009°51'8 7.7
2016-Feb-04 00:33N 38°49' W 009°51'8 7.5
2016-Feb-03 23:33N 38°42' W 009°51'7 7.3
2016-Feb-03 22:32N 38°34' W 009°49'7 7.4
2016-Feb-03 21:33N 38°27' W 009°46'8 7.4
2016-Feb-03 20:32N 38°20' W 009°44'8 8.0
2016-Feb-03 19:33N 38°12' W 009°42'7 7.2
2016-Feb-03 18:33N 38°06' W 009°40'8 7.4
2016-Feb-03 17:33N 37°58' W 009°37'8 7.6
2016-Feb-03 16:33N 37°51' W 009°35'8 8.1
2016-Feb-03 15:33N 37°43' W 009°33'8 7.7
2016-Feb-03 14:33N 37°35' W 009°31'8 7.3
2016-Feb-03 13:30N 37°28' W 009°29'8 7.9
2016-Feb-03 12:30N 37°20' W 009°27'7 7.3
2016-Feb-03 11:33N 37°14' W 009°25'7 7.4
2016-Feb-03 10:33N 37°06' W 009°23'8 7.6
2016-Feb-03 09:33N 36°59' W 009°20'8 7.3
2016-Feb-03 08:27N 36°52' W 009°16'7 7.8
2016-Feb-03 07:33N 36°46' W 009°10'8 8.2
2016-Feb-03 06:33N 36°44' W 009°01'9 8.9
2016-Feb-03 05:33N 36°40' W 008°50'10 9.8
2016-Feb-03 04:33N 36°37' W 008°39'10 9.4
2016-Feb-03 03:30N 36°34' W 008°27'10 9.9
2016-Feb-03 02:30N 36°31' W 008°16'44 9.9
2016-Feb-02 22:06N 36°17' W 007°24'1010.1
2016-Feb-02 21:06N 36°14' W 007°13'610.4
2016-Feb-02 20:33N 36°12' W 007°06'77 9.6
2016-Feb-02 12:33N 35°59' W 005°32'8 8.5
2016-Feb-02 11:33N 36°01' W 005°22'  
2016-Jan-30 21:33N 36°06' W 005°13'9 9.3
2016-Jan-30 20:33N 36°02' W 005°24'1010.0
2016-Jan-30 19:32N 35°56' W 005°34'  

Dump ship's entire track history